Time;durP1;ratioP1;P1;durP2;ratioP2;P2;SDS_P1;SDS_P2;PMS_P1;PMS_P2;Temp;Humidity;BMP_temperature;BMP_pressure;BME280_temperature;BME280_humidity;BME280_pressure;Samples;Min_cycle;Max_cycle;Signal;HPM_P1;HPM_P2
2023/07/31 00:01:08;;;;;;;4.97;3.67;;;16.90;99.90;;;;;;5094252;28;20841;-69
2023/07/31 00:03:36;;;;;;;5.67;3.90;;;16.90;99.90;;;;;;5092763;28;20414;-69
2023/07/31 00:06:04;;;;;;;5.67;3.80;;;16.90;99.90;;;;;;5093982;28;20912;-69
2023/07/31 00:08:32;;;;;;;6.40;4.27;;;16.90;99.90;;;;;;5093881;28;20403;-69
2023/07/31 00:11:01;;;;;;;5.60;3.10;;;16.90;99.90;;;;;;5093923;28;20448;-69
2023/07/31 00:13:29;;;;;;;5.17;3.97;;;16.90;99.90;;;;;;5093780;28;20464;-69
2023/07/31 00:15:58;;;;;;;4.10;3.50;;;17.00;99.90;;;;;;5092473;28;20448;-69
2023/07/31 00:18:27;;;;;;;5.33;3.23;;;17.00;99.90;;;;;;5094058;28;20414;-69
2023/07/31 00:20:55;;;;;;;4.73;3.13;;;17.00;99.90;;;;;;5093882;28;20922;-69
2023/07/31 00:23:23;;;;;;;4.23;3.27;;;17.00;99.90;;;;;;5093734;28;20818;-69
2023/07/31 00:25:51;;;;;;;5.20;3.13;;;16.90;99.90;;;;;;5093734;28;20468;-69
2023/07/31 00:28:19;;;;;;;3.43;3.13;;;16.90;99.90;;;;;;5092292;28;21028;-69
2023/07/31 00:30:47;;;;;;;4.50;3.43;;;16.90;99.90;;;;;;5092480;28;20909;-69
2023/07/31 00:33:17;;;;;;;4.10;3.10;;;17.00;99.90;;;;;;5093491;28;20431;-69
2023/07/31 00:35:45;;;;;;;4.30;3.00;;;17.00;99.90;;;;;;5094074;28;20787;-69
2023/07/31 00:38:13;;;;;;;4.33;3.30;;;17.00;99.90;;;;;;5093316;28;20440;-69
2023/07/31 00:40:41;;;;;;;7.03;3.00;;;17.00;99.90;;;;;;5092365;28;20494;-69
2023/07/31 00:43:09;;;;;;;3.77;3.07;;;17.00;99.90;;;;;;5093712;28;20427;-69
2023/07/31 00:45:37;;;;;;;5.67;3.20;;;17.00;99.90;;;;;;5092232;28;20538;-69
2023/07/31 00:48:07;;;;;;;3.80;2.90;;;17.00;99.90;;;;;;5093419;28;20407;-69
2023/07/31 00:50:37;;;;;;;4.77;2.97;;;16.90;99.90;;;;;;5092399;28;20470;-69
2023/07/31 00:53:05;;;;;;;4.80;2.87;;;16.90;99.90;;;;;;5091712;28;20992;-69
2023/07/31 00:55:34;;;;;;;3.77;2.97;;;16.90;99.90;;;;;;5093160;28;20414;-69
2023/07/31 00:58:02;;;;;;;4.93;2.80;;;16.90;99.90;;;;;;5091958;28;20418;-69
2023/07/31 01:00:30;;;;;;;3.60;3.20;;;16.90;99.90;;;;;;5093366;28;20414;-69
2023/07/31 01:02:59;;;;;;;3.83;2.90;;;16.90;99.90;;;;;;5091892;28;20974;-69
2023/07/31 01:05:40;;;;;;;3.50;3.07;;;17.00;99.90;;;;;;5093546;28;20432;-69
2023/07/31 01:08:16;;;;;;;3.57;2.73;;;16.90;99.90;;;;;;5093946;28;20448;-69
2023/07/31 01:10:49;;;;;;;4.70;3.37;;;17.00;99.90;;;;;;5093138;28;20399;-69
2023/07/31 01:13:20;;;;;;;4.70;3.20;;;16.90;99.90;;;;;;5092520;28;20438;-69
2023/07/31 01:15:48;;;;;;;4.50;3.07;;;16.90;99.90;;;;;;5091901;28;20419;-69
2023/07/31 01:18:16;;;;;;;4.87;3.07;;;17.00;99.90;;;;;;5092060;28;20439;-69
2023/07/31 01:20:55;;;;;;;4.30;3.17;;;16.90;99.90;;;;;;5091807;28;20444;-69
2023/07/31 01:23:43;;;;;;;3.43;2.97;;;16.90;99.90;;;;;;5093265;28;20451;-69
2023/07/31 01:26:19;;;;;;;3.13;2.83;;;17.00;99.90;;;;;;5091801;28;20499;-69
2023/07/31 01:28:57;;;;;;;4.43;3.00;;;16.90;99.90;;;;;;5091877;28;20448;-69
2023/07/31 01:31:27;;;;;;;6.23;3.07;;;16.90;99.90;;;;;;5091965;28;20455;-69
2023/07/31 01:34:02;;;;;;;4.53;2.80;;;16.90;99.90;;;;;;5091672;28;20407;-69
2023/07/31 01:36:31;;;;;;;3.43;2.77;;;16.90;99.90;;;;;;5091521;28;20438;-69
2023/07/31 01:39:01;;;;;;;4.60;3.00;;;16.90;99.90;;;;;;5091358;28;20451;-69
2023/07/31 01:41:30;;;;;;;4.03;2.60;;;16.90;99.90;;;;;;5091432;28;20470;-69
2023/07/31 01:43:58;;;;;;;3.70;3.27;;;16.90;99.90;;;;;;5091483;28;20497;-69
2023/07/31 01:46:27;;;;;;;3.90;3.10;;;16.80;99.90;;;;;;5093018;28;20497;-69
2023/07/31 01:48:57;;;;;;;3.60;3.17;;;16.80;99.90;;;;;;5092916;28;20478;-70
2023/07/31 01:51:25;;;;;;;3.67;2.90;;;16.80;99.90;;;;;;5092954;28;20450;-70
2023/07/31 01:53:53;;;;;;;3.17;2.87;;;16.80;99.90;;;;;;5091420;28;20893;-69
2023/07/31 01:56:21;;;;;;;3.13;2.83;;;16.70;99.90;;;;;;5091281;28;20411;-70
2023/07/31 01:58:50;;;;;;;4.80;3.30;;;16.70;99.90;;;;;;5092619;28;20406;-69
2023/07/31 02:01:18;;;;;;;4.20;2.93;;;16.70;99.90;;;;;;5092582;28;20485;-70
2023/07/31 02:03:47;;;;;;;3.60;2.80;;;16.60;99.90;;;;;;5092427;28;20466;-69
2023/07/31 02:06:15;;;;;;;3.83;2.70;;;16.60;99.90;;;;;;5094904;28;20513;-70
2023/07/31 02:08:44;;;;;;;4.53;3.47;;;16.60;99.90;;;;;;5095123;28;20423;-69
2023/07/31 02:11:13;;;;;;;5.87;3.00;;;16.50;99.90;;;;;;5095013;28;20958;-69
2023/07/31 02:13:41;;;;;;;4.07;3.23;;;16.50;99.90;;;;;;5096140;28;20967;-69
2023/07/31 02:16:11;;;;;;;3.60;3.30;;;16.50;99.90;;;;;;5094879;28;20453;-69
2023/07/31 02:18:39;;;;;;;3.37;3.07;;;16.50;99.90;;;;;;5096403;28;20435;-70
2023/07/31 02:21:07;;;;;;;3.80;3.40;;;16.50;99.90;;;;;;5095904;28;20922;-70
2023/07/31 02:23:35;;;;;;;4.80;3.33;;;16.40;99.90;;;;;;5094718;28;20444;-69
2023/07/31 02:26:03;;;;;;;3.97;3.27;;;16.40;99.90;;;;;;5096139;28;20409;-69
2023/07/31 02:28:32;;;;;;;4.40;3.67;;;16.40;99.90;;;;;;5094786;28;20418;-70
2023/07/31 02:31:00;;;;;;;3.77;3.30;;;16.40;99.90;;;;;;5094804;28;20436;-69
2023/07/31 02:33:30;;;;;;;4.40;3.53;;;16.40;99.90;;;;;;5095722;28;20543;-69
2023/07/31 02:35:59;;;;;;;3.87;3.33;;;16.40;99.90;;;;;;5094578;28;20442;-69
2023/07/31 02:38:27;;;;;;;4.77;3.70;;;16.30;99.90;;;;;;5095471;28;20472;-69
2023/07/31 02:40:55;;;;;;;4.47;3.90;;;16.30;99.90;;;;;;5094411;28;20480;-69
2023/07/31 02:43:23;;;;;;;4.23;3.73;;;16.30;99.90;;;;;;5094191;28;20447;-69
2023/07/31 02:45:52;;;;;;;4.10;3.70;;;16.30;99.90;;;;;;5094315;28;20497;-69
2023/07/31 02:48:21;;;;;;;5.90;3.93;;;16.30;99.90;;;;;;5095440;28;20436;-69
2023/07/31 02:50:50;;;;;;;4.27;3.87;;;16.30;99.90;;;;;;5095969;28;20409;-69
2023/07/31 02:53:18;;;;;;;4.53;4.13;;;16.20;99.90;;;;;;5094076;28;21032;-69
2023/07/31 02:55:46;;;;;;;4.50;4.10;;;16.20;99.90;;;;;;5095899;28;20845;-69
2023/07/31 02:58:14;;;;;;;4.47;4.00;;;16.20;99.90;;;;;;5093936;28;20885;-69
2023/07/31 03:00:44;;;;;;;5.13;4.63;;;16.20;99.90;;;;;;5095510;28;20437;-69
2023/07/31 03:03:12;;;;;;;4.23;3.93;;;16.20;99.90;;;;;;5095410;28;20423;-69
2023/07/31 03:05:40;;;;;;;4.60;4.20;;;16.20;99.90;;;;;;5095224;28;20527;-69
2023/07/31 03:08:09;;;;;;;5.23;4.73;;;16.20;99.90;;;;;;5095688;28;20428;-69
2023/07/31 03:10:38;;;;;;;6.20;4.63;;;16.20;99.90;;;;;;5095025;28;20497;-69
2023/07/31 03:13:06;;;;;;;5.20;4.50;;;16.20;99.90;;;;;;5093617;28;21009;-69
2023/07/31 03:15:34;;;;;;;5.53;5.03;;;16.20;99.90;;;;;;5095119;28;20851;-69
2023/07/31 03:18:02;;;;;;;7.63;5.70;;;16.20;99.90;;;;;;5095427;28;20467;-69
2023/07/31 03:20:30;;;;;;;5.20;4.80;;;16.10;99.90;;;;;;5094509;28;20506;-69
2023/07/31 03:22:59;;;;;;;5.20;4.80;;;16.20;99.90;;;;;;5094804;28;20435;-69
2023/07/31 03:25:28;;;;;;;4.80;4.40;;;16.20;99.90;;;;;;5094843;28;20834;-69
2023/07/31 03:27:56;;;;;;;4.87;4.47;;;16.10;99.90;;;;;;5095287;28;20449;-69
2023/07/31 03:30:24;;;;;;;6.20;5.10;;;16.20;99.90;;;;;;5093539;28;20451;-69
2023/07/31 03:32:53;;;;;;;5.77;5.20;;;16.20;99.90;;;;;;5094574;28;20469;-69
2023/07/31 03:35:21;;;;;;;5.03;4.63;;;16.20;99.90;;;;;;5094838;28;20407;-69
2023/07/31 03:37:49;;;;;;;5.83;5.23;;;16.20;99.90;;;;;;5093256;28;20471;-69
2023/07/31 03:40:17;;;;;;;5.03;4.63;;;16.20;99.90;;;;;;5094525;28;20946;-69
2023/07/31 03:42:46;;;;;;;5.80;5.30;;;16.10;99.90;;;;;;5094512;28;20505;-69
2023/07/31 03:45:15;;;;;;;5.37;4.83;;;16.10;99.90;;;;;;5093104;28;20426;-69
2023/07/31 03:47:43;;;;;;;5.70;5.20;;;16.10;99.90;;;;;;5093147;28;20415;-69
2023/07/31 03:50:11;;;;;;;7.50;5.20;;;16.20;99.90;;;;;;5093035;28;20464;-69
2023/07/31 03:52:39;;;;;;;6.20;5.60;;;16.20;99.90;;;;;;5094245;28;20441;-69
2023/07/31 03:55:08;;;;;;;6.07;5.47;;;16.20;99.90;;;;;;5094801;28;20451;-69
2023/07/31 03:57:36;;;;;;;5.90;5.30;;;16.10;99.90;;;;;;5092833;28;20479;-69
2023/07/31 04:00:06;;;;;;;5.90;5.40;;;16.10;99.90;;;;;;5094712;28;20432;-69
2023/07/31 04:02:39;;;;;;;5.60;5.10;;;16.10;99.90;;;;;;5094036;28;20462;-69
2023/07/31 04:05:09;;;;;;;5.80;5.30;;;16.10;99.90;;;;;;5094467;28;20980;-69
2023/07/31 04:07:37;;;;;;;5.77;5.27;;;16.10;99.90;;;;;;5094533;28;20455;-69
2023/07/31 04:10:06;;;;;;;6.30;5.70;;;16.10;99.90;;;;;;5094529;28;20462;-69
2023/07/31 04:12:34;;;;;;;4.67;4.30;;;16.10;99.90;;;;;;5094041;28;20431;-69
2023/07/31 04:15:02;;;;;;;6.40;5.80;;;16.10;99.90;;;;;;5094175;28;20429;-69
2023/07/31 04:17:32;;;;;;;5.83;5.40;;;16.10;99.90;;;;;;5094316;28;20976;-69
2023/07/31 04:20:00;;;;;;;5.60;5.10;;;16.10;99.90;;;;;;5093892;28;20486;-69
2023/07/31 04:22:29;;;;;;;4.63;4.23;;;16.10;99.90;;;;;;5092414;28;20442;-69
2023/07/31 04:24:57;;;;;;;5.57;5.07;;;16.10;99.90;;;;;;5093940;28;20410;-69
2023/07/31 04:27:25;;;;;;;4.70;4.20;;;16.20;99.90;;;;;;5092226;28;20534;-70
2023/07/31 04:29:53;;;;;;;4.60;4.20;;;16.10;99.90;;;;;;5093883;28;20515;-69
2023/07/31 04:32:21;;;;;;;4.50;4.10;;;16.10;99.90;;;;;;5094161;28;20451;-69
2023/07/31 04:34:51;;;;;;;4.70;4.30;;;16.10;99.90;;;;;;5093596;28;20410;-69
2023/07/31 04:37:19;;;;;;;4.67;4.33;;;16.10;99.90;;;;;;5093638;28;20489;-69
2023/07/31 04:39:47;;;;;;;5.40;4.90;;;16.10;99.90;;;;;;5092037;28;20971;-69
2023/07/31 04:42:15;;;;;;;4.27;3.97;;;16.10;99.90;;;;;;5093708;28;20895;-69
2023/07/31 04:44:43;;;;;;;4.40;4.00;;;16.10;99.90;;;;;;5093809;28;20494;-69
2023/07/31 04:47:11;;;;;;;5.20;4.70;;;16.10;99.90;;;;;;5092503;28;20436;-70
2023/07/31 04:49:39;;;;;;;7.10;4.47;;;16.10;99.90;;;;;;5093702;28;20436;-69
2023/07/31 04:52:09;;;;;;;4.07;3.77;;;16.10;99.90;;;;;;5093320;28;20769;-69
2023/07/31 04:54:37;;;;;;;4.90;4.40;;;16.10;99.90;;;;;;5092112;28;20421;-69
2023/07/31 04:57:07;;;;;;;4.30;3.90;;;16.10;99.90;;;;;;5092120;28;20513;-69
2023/07/31 04:59:35;;;;;;;3.60;3.30;;;16.10;99.90;;;;;;5093526;28;20815;-69
2023/07/31 05:02:03;;;;;;;4.07;3.73;;;16.10;99.90;;;;;;5093241;28;20804;-69
2023/07/31 05:04:31;;;;;;;5.40;4.00;;;16.10;99.90;;;;;;5093430;28;20933;-69
2023/07/31 05:06:59;;;;;;;3.50;3.20;;;16.10;99.90;;;;;;5094024;28;20490;-69
2023/07/31 05:09:29;;;;;;;4.40;3.93;;;16.10;99.90;;;;;;5093684;28;20896;-70
2023/07/31 05:11:57;;;;;;;3.83;3.53;;;16.10;99.90;;;;;;5092080;28;21007;-69
2023/07/31 05:14:25;;;;;;;3.40;3.10;;;16.10;99.90;;;;;;5093382;28;20528;-69
2023/07/31 05:16:53;;;;;;;3.50;3.20;;;16.10;99.90;;;;;;5093202;28;20505;-69
2023/07/31 05:19:21;;;;;;;4.10;2.57;;;16.10;99.90;;;;;;5091804;28;20442;-69
2023/07/31 05:21:49;;;;;;;2.60;2.40;;;16.10;99.90;;;;;;5093032;28;20462;-69
2023/07/31 05:24:17;;;;;;;3.50;2.67;;;16.10;99.90;;;;;;5091766;28;20547;-69
2023/07/31 05:26:47;;;;;;;3.70;3.33;;;16.10;99.90;;;;;;5093621;28;20540;-69
2023/07/31 05:29:16;;;;;;;2.37;2.17;;;16.10;99.90;;;;;;5093639;28;20439;-69
2023/07/31 05:31:44;;;;;;;3.00;2.80;;;16.10;99.90;;;;;;5092986;28;20426;-69
2023/07/31 05:34:12;;;;;;;4.40;2.20;;;16.10;99.90;;;;;;5093050;28;20444;-69
2023/07/31 05:36:40;;;;;;;2.87;2.50;;;16.10;99.90;;;;;;5091704;28;20415;-69
2023/07/31 05:39:09;;;;;;;2.73;2.40;;;16.10;99.90;;;;;;5094539;28;20461;-69
2023/07/31 05:41:37;;;;;;;2.13;1.93;;;16.10;99.90;;;;;;5097004;28;20460;-69
2023/07/31 05:44:06;;;;;;;3.23;2.00;;;16.20;99.90;;;;;;5096793;28;20441;-69
2023/07/31 05:46:35;;;;;;;2.50;2.30;;;16.20;99.90;;;;;;5096582;28;20501;-69
2023/07/31 05:49:03;;;;;;;3.73;2.57;;;16.20;99.90;;;;;;5096669;28;20411;-69
2023/07/31 05:51:31;;;;;;;2.60;2.30;;;16.20;99.90;;;;;;5096603;28;20430;-69
2023/07/31 05:53:59;;;;;;;3.67;2.70;;;16.20;99.90;;;;;;5096863;28;20436;-69
2023/07/31 05:56:28;;;;;;;2.70;2.50;;;16.20;99.90;;;;;;5096846;28;20513;-69
2023/07/31 05:58:57;;;;;;;2.67;2.47;;;16.20;99.90;;;;;;5096412;28;20806;-69
2023/07/31 06:01:26;;;;;;;3.33;3.03;;;16.20;99.90;;;;;;5095063;28;20448;-69
2023/07/31 06:03:54;;;;;;;3.33;3.03;;;16.30;99.90;;;;;;5096465;28;20475;-69
2023/07/31 06:06:23;;;;;;;2.63;2.43;;;16.30;99.90;;;;;;5096902;28;20761;-70
2023/07/31 06:08:51;;;;;;;3.50;3.20;;;16.20;99.90;;;;;;5096607;28;20407;-69
2023/07/31 06:11:20;;;;;;;3.20;2.90;;;16.30;99.90;;;;;;5096174;28;20413;-69
2023/07/31 06:13:49;;;;;;;3.13;2.90;;;16.30;99.90;;;;;;5096232;28;20877;-69
2023/07/31 06:16:17;;;;;;;3.37;3.07;;;16.30;99.90;;;;;;5096622;28;20456;-69
2023/07/31 06:18:47;;;;;;;3.80;3.03;;;16.30;99.90;;;;;;5096527;28;20411;-69
2023/07/31 06:21:15;;;;;;;4.60;3.60;;;16.30;99.90;;;;;;5095949;28;20925;-69
2023/07/31 06:23:43;;;;;;;5.80;5.30;;;16.30;99.90;;;;;;5096320;28;20527;-69
2023/07/31 06:26:12;;;;;;;6.40;5.90;;;16.30;99.90;;;;;;5095993;28;20421;-69
2023/07/31 06:28:40;;;;;;;4.73;4.43;;;16.30;99.90;;;;;;5094666;28;20527;-69
2023/07/31 06:31:08;;;;;;;4.10;3.70;;;16.40;99.90;;;;;;5095859;28;20411;-69
2023/07/31 06:33:37;;;;;;;3.70;3.40;;;16.40;99.90;;;;;;5096268;28;20432;-69
2023/07/31 06:36:06;;;;;;;3.60;3.30;;;16.40;99.90;;;;;;5096352;28;20403;-69
2023/07/31 06:38:34;;;;;;;3.83;3.53;;;16.40;99.90;;;;;;5095904;28;21020;-69
2023/07/31 06:41:03;;;;;;;2.40;2.20;;;16.40;99.90;;;;;;5096016;28;20488;-69
2023/07/31 06:43:32;;;;;;;2.20;2.00;;;16.40;99.90;;;;;;5095535;28;20474;-69
2023/07/31 06:46:05;;;;;;;2.17;1.80;;;16.40;99.90;;;;;;5094363;28;20440;-70
2023/07/31 06:48:33;;;;;;;2.30;1.90;;;16.40;99.90;;;;;;5096123;28;20420;-70
2023/07/31 06:51:02;;;;;;;1.90;1.80;;;16.40;99.90;;;;;;5095056;28;20930;-70
2023/07/31 06:53:31;;;;;;;2.30;2.10;;;16.50;99.90;;;;;;5095425;28;20791;-69
2023/07/31 06:55:59;;;;;;;2.40;2.10;;;16.50;99.90;;;;;;5094110;28;20791;-69
2023/07/31 06:58:27;;;;;;;2.23;2.03;;;16.50;99.90;;;;;;5094039;28;20486;-69
2023/07/31 07:00:55;;;;;;;1.90;1.80;;;16.60;99.90;;;;;;5095689;28;20878;-69
2023/07/31 07:03:24;;;;;;;2.63;2.33;;;16.50;99.90;;;;;;5095507;28;20459;-68
2023/07/31 07:05:52;;;;;;;2.43;2.23;;;16.60;99.90;;;;;;5096636;28;20449;-69
2023/07/31 07:08:20;;;;;;;2.67;2.10;;;16.60;99.90;;;;;;5095230;28;20523;-69
2023/07/31 07:10:49;;;;;;;3.00;2.70;;;16.60;99.90;;;;;;5094055;28;20536;-69
2023/07/31 07:13:18;;;;;;;3.00;2.80;;;16.60;99.90;;;;;;5095113;28;20454;-69
2023/07/31 07:15:49;;;;;;;3.83;3.43;;;16.60;99.90;;;;;;5095292;28;20954;-69
2023/07/31 07:18:17;;;;;;;4.20;3.80;;;16.70;99.90;;;;;;5093891;28;20414;-69
2023/07/31 07:20:50;;;;;;;4.20;3.80;;;16.70;99.90;;;;;;5095294;28;20950;-69
2023/07/31 07:23:18;;;;;;;4.77;4.37;;;16.70;99.90;;;;;;5095541;28;20517;-69
2023/07/31 07:25:47;;;;;;;4.27;3.97;;;16.80;99.90;;;;;;5095083;28;20479;-69
2023/07/31 07:28:17;;;;;;;5.07;4.57;;;16.70;99.90;;;;;;5093531;28;20449;-70
2023/07/31 07:30:45;;;;;;;5.33;4.83;;;16.70;99.90;;;;;;5095039;28;20424;-69
2023/07/31 07:33:13;;;;;;;4.60;3.93;;;16.70;99.90;;;;;;5095054;28;20473;-69
2023/07/31 07:35:41;;;;;;;7.00;5.40;;;16.70;99.90;;;;;;5094757;28;20501;-69
2023/07/31 07:38:09;;;;;;;8.73;6.33;;;16.80;99.90;;;;;;5093415;28;20450;-69
2023/07/31 07:40:40;;;;;;;7.20;6.20;;;16.80;99.90;;;;;;5094793;28;20584;-69
2023/07/31 07:43:08;;;;;;;10.63;8.10;;;16.80;99.90;;;;;;5095023;28;20481;-69
2023/07/31 07:45:38;;;;;;;12.77;9.60;;;16.80;99.90;;;;;;5094755;28;20907;-70
2023/07/31 07:48:06;;;;;;;14.03;9.97;;;16.80;99.90;;;;;;5094573;28;20480;-69
2023/07/31 07:50:34;;;;;;;14.17;9.47;;;16.80;99.90;;;;;;5095346;28;20765;-70
2023/07/31 07:53:02;;;;;;;13.23;11.33;;;16.90;99.90;;;;;;5094793;28;20426;-70
2023/07/31 07:55:30;;;;;;;12.73;9.63;;;16.80;99.90;;;;;;5094433;28;20436;-71
2023/07/31 07:57:58;;;;;;;13.17;10.63;;;16.90;99.90;;;;;;5093072;28;20510;-69
2023/07/31 08:00:27;;;;;;;14.90;11.30;;;16.90;99.90;;;;;;5094084;28;20442;-70
2023/07/31 08:02:58;;;;;;;15.17;12.73;;;16.90;99.90;;;;;;5093793;28;20773;-70
2023/07/31 08:05:26;;;;;;;18.10;12.83;;;16.90;99.90;;;;;;5094204;28;20433;-70
2023/07/31 08:07:54;;;;;;;16.60;12.63;;;17.00;99.90;;;;;;5094240;28;20455;-69
2023/07/31 08:10:22;;;;;;;16.07;13.50;;;17.00;99.90;;;;;;5094409;28;20439;-70
2023/07/31 08:12:50;;;;;;;19.60;14.07;;;17.00;99.90;;;;;;5094016;28;20423;-70
2023/07/31 08:15:18;;;;;;;21.73;15.07;;;17.00;99.90;;;;;;5094101;28;20953;-70
2023/07/31 08:17:47;;;;;;;20.93;15.10;;;17.00;99.90;;;;;;5092687;28;20494;-70
2023/07/31 08:20:16;;;;;;;18.30;14.57;;;17.10;99.90;;;;;;5094211;28;20793;-70
2023/07/31 08:22:44;;;;;;;22.20;15.33;;;17.10;99.90;;;;;;5094021;28;20464;-70
2023/07/31 08:25:13;;;;;;;18.27;15.17;;;17.10;99.90;;;;;;5093798;28;20432;-70
2023/07/31 08:27:44;;;;;;;23.10;14.93;;;17.10;99.90;;;;;;5093902;28;20802;-70
2023/07/31 08:30:13;;;;;;;20.87;16.17;;;17.10;99.90;;;;;;5094151;28;20425;-70
2023/07/31 08:32:41;;;;;;;23.47;16.57;;;17.10;99.90;;;;;;5092487;28;20784;-70
2023/07/31 08:35:09;;;;;;;17.67;15.73;;;17.10;99.90;;;;;;5093757;28;20460;-70
2023/07/31 08:37:39;;;;;;;24.13;17.00;;;17.20;99.90;;;;;;5093725;28;20555;-70
2023/07/31 08:40:08;;;;;;;21.10;16.57;;;17.20;99.90;;;;;;5093887;28;20937;-69
2023/07/31 08:42:45;;;;;;;21.13;17.10;;;17.20;99.90;;;;;;5092267;28;20494;-70
2023/07/31 08:45:16;;;;;;;18.70;16.10;;;17.20;99.90;;;;;;5093817;28;20420;-70
2023/07/31 08:47:47;;;;;;;19.70;14.90;;;17.20;99.90;;;;;;5093729;28;20413;-70
2023/07/31 08:50:17;;;;;;;19.93;15.93;;;17.30;99.90;;;;;;5094022;28;20448;-70
2023/07/31 08:52:48;;;;;;;22.50;15.97;;;17.30;99.90;;;;;;5093766;28;20449;-69
2023/07/31 08:55:16;;;;;;;19.60;15.23;;;17.30;99.90;;;;;;5093965;28;20905;-69
2023/07/31 08:57:44;;;;;;;17.80;14.77;;;17.40;99.90;;;;;;5093445;28;20459;-70
2023/07/31 09:00:15;;;;;;;19.47;13.77;;;17.40;99.90;;;;;;5094042;28;20479;-70
2023/07/31 09:02:47;;;;;;;17.03;13.20;;;17.40;99.90;;;;;;5094631;28;21016;-70
2023/07/31 09:05:16;;;;;;;15.57;12.20;;;17.40;99.90;;;;;;5094300;28;20424;-70
2023/07/31 09:07:48;;;;;;;16.70;12.37;;;17.50;99.90;;;;;;5094321;28;20438;-70
2023/07/31 09:10:16;;;;;;;12.50;11.20;;;17.50;99.90;;;;;;5094436;28;20419;-70
2023/07/31 09:12:45;;;;;;;17.90;11.50;;;17.50;99.90;;;;;;5093988;28;20470;-70
2023/07/31 09:15:13;;;;;;;15.20;11.07;;;17.50;99.90;;;;;;5098235;28;20421;-69
2023/07/31 09:18:01;;;;;;;13.23;10.07;;;17.50;99.90;;;;;;5098527;28;20390;-69
2023/07/31 09:20:29;;;;;;;16.43;10.00;;;17.60;99.90;;;;;;5098387;28;20479;-70
2023/07/31 09:23:07;;;;;;;11.60;9.40;;;17.60;99.90;;;;;;5097985;28;20430;-70
2023/07/31 09:25:36;;;;;;;12.83;9.00;;;17.60;99.90;;;;;;5098620;28;20398;-70
2023/07/31 09:28:05;;;;;;;11.27;8.80;;;17.60;99.90;;;;;;5098371;28;20414;-70
2023/07/31 09:30:47;;;;;;;10.73;8.27;;;17.60;99.90;;;;;;5097938;28;20481;-70
2023/07/31 09:33:16;;;;;;;11.53;8.80;;;17.60;99.90;;;;;;5097933;28;20479;-69
2023/07/31 09:35:45;;;;;;;9.73;8.30;;;17.60;99.90;;;;;;5096714;28;20429;-70
2023/07/31 09:38:15;;;;;;;8.23;7.40;;;17.60;99.90;;;;;;5097650;28;20413;-70
2023/07/31 09:40:45;;;;;;;9.40;7.70;;;17.60;99.90;;;;;;5098172;28;21006;-69
2023/07/31 09:43:17;;;;;;;8.83;7.50;;;17.60;99.90;;;;;;5096465;28;20868;-70
2023/07/31 09:45:46;;;;;;;9.50;8.10;;;17.60;99.90;;;;;;5098102;28;20887;-70
2023/07/31 09:48:17;;;;;;;10.63;8.07;;;17.60;99.90;;;;;;5096517;28;20497;-70
2023/07/31 09:50:46;;;;;;;8.43;7.53;;;17.60;99.90;;;;;;5098041;28;20975;-70
2023/07/31 09:53:17;;;;;;;9.27;7.30;;;17.70;99.90;;;;;;5097725;28;21015;-70
2023/07/31 09:55:45;;;;;;;8.17;7.37;;;17.70;99.90;;;;;;5097857;28;20894;-70
2023/07/31 09:58:14;;;;;;;10.20;6.97;;;17.70;99.90;;;;;;5097451;28;20941;-70
2023/07/31 10:00:42;;;;;;;9.90;6.70;;;17.80;99.90;;;;;;5095628;28;20472;-70
2023/07/31 10:03:11;;;;;;;6.57;5.97;;;17.80;99.90;;;;;;5095152;28;20566;-70
2023/07/31 10:05:43;;;;;;;9.40;6.93;;;17.80;99.90;;;;;;5096735;28;20466;-70
2023/07/31 10:08:12;;;;;;;10.23;5.90;;;17.90;99.90;;;;;;5097858;28;20412;-70
2023/07/31 10:10:44;;;;;;;6.70;5.60;;;17.90;99.90;;;;;;5097323;28;20473;-70
2023/07/31 10:13:12;;;;;;;5.90;5.40;;;18.00;99.90;;;;;;5097051;28;20473;-70
2023/07/31 10:15:43;;;;;;;5.30;4.80;;;18.00;99.90;;;;;;5097569;28;20460;-70
2023/07/31 10:18:12;;;;;;;5.47;4.87;;;18.00;99.90;;;;;;5097203;28;20490;-70
2023/07/31 10:20:42;;;;;;;5.73;5.23;;;18.10;99.90;;;;;;5097533;28;20436;-70
2023/07/31 10:23:11;;;;;;;5.07;4.57;;;18.10;99.90;;;;;;5097412;28;20475;-70
2023/07/31 10:25:40;;;;;;;5.43;4.40;;;18.10;99.90;;;;;;5095857;28;20990;-70
2023/07/31 10:28:10;;;;;;;4.23;3.83;;;18.20;99.90;;;;;;5096717;28;20501;-70
2023/07/31 10:30:40;;;;;;;5.30;4.80;;;18.30;99.90;;;;;;5096013;28;20395;-70
2023/07/31 10:33:09;;;;;;;5.60;4.20;;;18.30;99.90;;;;;;5095818;28;20479;-70
2023/07/31 10:35:37;;;;;;;4.93;4.33;;;18.30;99.90;;;;;;5095807;28;20952;-70
2023/07/31 10:38:12;;;;;;;4.97;3.83;;;18.30;99.90;;;;;;5095747;28;21002;-70
2023/07/31 10:40:40;;;;;;;3.43;3.13;;;18.30;99.90;;;;;;5096042;28;20420;-70
2023/07/31 10:43:11;;;;;;;5.13;4.13;;;18.30;99.90;;;;;;5095538;28;20454;-70
2023/07/31 10:45:41;;;;;;;2.87;2.60;;;18.40;99.90;;;;;;5095794;28;20905;-70
2023/07/31 10:48:14;;;;;;;3.33;3.03;;;18.40;99.90;;;;;;5095677;28;20436;-70
2023/07/31 10:50:49;;;;;;;5.40;3.03;;;18.40;99.90;;;;;;5095926;28;20507;-70
2023/07/31 10:53:24;;;;;;;4.20;3.53;;;18.40;99.90;;;;;;5095665;28;20862;-70
2023/07/31 10:55:52;;;;;;;3.73;2.83;;;18.40;99.90;;;;;;5096103;28;20808;-70
2023/07/31 10:58:22;;;;;;;3.30;2.50;;;18.50;99.90;;;;;;5095401;28;20443;-70
2023/07/31 11:00:51;;;;;;;4.37;2.43;;;18.50;99.90;;;;;;5095623;28;20950;-70
2023/07/31 11:03:22;;;;;;;3.70;3.40;;;18.60;99.90;;;;;;5095258;28;20508;-70
2023/07/31 11:05:53;;;;;;;2.80;2.60;;;18.60;99.90;;;;;;5095583;28;20507;-70
2023/07/31 11:08:24;;;;;;;4.07;2.13;;;18.70;99.90;;;;;;5095536;28;20448;-70
2023/07/31 11:11:06;;;;;;;2.10;1.90;;;18.70;99.90;;;;;;5095437;28;20474;-70
2023/07/31 11:13:42;;;;;;;1.87;1.77;;;18.80;99.90;;;;;;5095092;28;20440;-70
2023/07/31 11:16:10;;;;;;;3.13;1.83;;;18.80;99.90;;;;;;5095335;28;20905;-70
2023/07/31 11:18:40;;;;;;;2.03;1.83;;;18.90;99.90;;;;;;5093724;28;20448;-70
2023/07/31 11:21:08;;;;;;;1.50;1.40;;;18.90;99.90;;;;;;5094964;28;20998;-70
2023/07/31 11:23:38;;;;;;;2.07;1.87;;;18.90;99.90;;;;;;5093582;28;20440;-70
2023/07/31 11:26:07;;;;;;;1.40;1.30;;;18.90;99.90;;;;;;5094844;28;20411;-70
2023/07/31 11:28:37;;;;;;;2.10;1.50;;;18.90;99.90;;;;;;5095066;28;20467;-70
2023/07/31 11:31:05;;;;;;;1.93;1.70;;;18.90;99.90;;;;;;5094765;28;20411;-70
2023/07/31 11:33:33;;;;;;;1.87;1.73;;;19.00;99.90;;;;;;5094920;28;20433;-70
2023/07/31 11:36:01;;;;;;;1.70;1.60;;;18.90;99.90;;;;;;5095172;28;20519;-70
2023/07/31 11:38:31;;;;;;;1.77;1.67;;;18.90;99.90;;;;;;5094754;28;20448;-70
2023/07/31 11:41:02;;;;;;;1.50;1.40;;;19.00;99.90;;;;;;5094595;28;20868;-70
2023/07/31 11:43:32;;;;;;;1.60;1.50;;;19.00;99.90;;;;;;5094447;28;20555;-70
2023/07/31 11:46:02;;;;;;;1.27;1.17;;;19.00;99.90;;;;;;5094725;28;20523;-70
2023/07/31 11:48:34;;;;;;;1.60;1.40;;;19.10;99.90;;;;;;5093188;28;20507;-70
2023/07/31 11:51:04;;;;;;;1.73;1.63;;;19.10;99.90;;;;;;5093336;28;20455;-70
2023/07/31 11:53:36;;;;;;;1.60;1.50;;;19.10;99.90;;;;;;5094419;28;20509;-70
2023/07/31 11:56:05;;;;;;;1.47;1.37;;;19.10;99.90;;;;;;5094833;28;20870;-70
2023/07/31 11:58:34;;;;;;;1.50;1.40;;;19.10;99.90;;;;;;5094359;28;20870;-70
2023/07/31 12:01:04;;;;;;;1.60;1.50;;;19.10;99.90;;;;;;5094509;28;20428;-70
2023/07/31 12:03:33;;;;;;;1.30;1.20;;;19.10;99.90;;;;;;5094405;28;20525;-70
2023/07/31 12:06:02;;;;;;;1.50;1.40;;;19.10;99.90;;;;;;5094272;28;20436;-71
2023/07/31 12:08:30;;;;;;;1.40;1.30;;;19.10;99.90;;;;;;5092912;28;20476;-70
2023/07/31 12:11:04;;;;;;;1.60;1.30;;;19.20;99.90;;;;;;5092855;28;20472;-71
2023/07/31 12:13:33;;;;;;;1.40;1.30;;;19.20;99.90;;;;;;5094046;28;20480;-71
2023/07/31 12:16:04;;;;;;;1.50;1.20;;;19.20;99.90;;;;;;5093981;28;20782;-71
2023/07/31 12:18:36;;;;;;;1.33;1.23;;;19.20;99.90;;;;;;5092710;28;20453;-70
2023/07/31 12:21:06;;;;;;;1.60;1.30;;;19.20;99.90;;;;;;5094581;28;20751;-71
2023/07/31 12:23:36;;;;;;;1.33;1.23;;;19.20;99.90;;;;;;5092569;28;20464;-71
2023/07/31 12:26:05;;;;;;;1.70;1.60;;;19.20;99.90;;;;;;5093994;28;21023;-70
2023/07/31 12:28:36;;;;;;;1.63;1.53;;;19.20;99.90;;;;;;5092474;28;20522;-70
2023/07/31 12:31:07;;;;;;;1.60;1.50;;;19.20;99.90;;;;;;5093764;28;20983;-70
2023/07/31 12:33:37;;;;;;;1.83;1.73;;;19.20;99.90;;;;;;5092588;28;20833;-71
2023/07/31 12:36:09;;;;;;;2.50;1.90;;;19.20;99.90;;;;;;5094014;28;20440;-71
2023/07/31 12:38:37;;;;;;;1.97;1.77;;;19.20;99.90;;;;;;5093699;28;20455;-71
2023/07/31 12:41:06;;;;;;;2.67;1.60;;;19.20;99.90;;;;;;5094065;28;20789;-70
2023/07/31 12:43:35;;;;;;;1.80;1.70;;;19.20;99.90;;;;;;5093390;28;20841;-70
2023/07/31 12:46:03;;;;;;;1.97;1.77;;;19.30;99.90;;;;;;5093565;28;20490;-70
2023/07/31 12:48:33;;;;;;;1.93;1.70;;;19.30;99.90;;;;;;5091839;28;20446;-70
2023/07/31 12:51:02;;;;;;;2.40;2.13;;;19.40;99.90;;;;;;5093481;28;20432;-70
2023/07/31 12:53:30;;;;;;;2.40;2.20;;;19.40;99.90;;;;;;5093369;28;20426;-70